LFPB

Paris/Le Bourget Airport

Airport
ICAO code
LFPB
IATA Code
LBG
Summary
ICAO Region
EUR
ICAO Territory
Location

Le Bourget, Bonneuil-en-France, Ile-de-France

Serving
Paris
Elevation
220 ft
Coordinates
48° 57' 41" N , 2° 26' 9" E
KCC
Metar
Observation
LFPB 030330Z AUTO 03012KT 7000 OVC016 03/02 Q1017 TEMPO 4000 -RASN BKN009
Station
Paris / Le Bourget
Date/Time
2022-12-03 03:30:00
Wind direction
30°
Wind speed
12 kts
Lowest cloud amount
overcast
Temperature
3°C
Dew point
2°C
Humidity
93%
QNH
1017 hPa
Weather condition
n/a

Description

Paris - Le Bourget Airport is an airport located in Le Bourget, Bonneuil-en-France, and Dugny, 6 nm north-northeast (NNE) of Paris, France. It is now used only for general aviation (business jets) as well as air shows.

Climatology

Temperate Marine climate/Oceanic climate (Köppen climate classification Cfb). Moderately cool summer and comparatively warm winter. Prevailing south-westerly winds from the Atlantic Ocean.

Runways

Designator Length Width Surface Rops
9/27 1845 45 ASP Yes/Yes
3/21 2665 60 ASP Yes/Yes
7/25 3000 45 CON Yes/Yes

SKYbrary Partners:

Safety knowledge contributed by: